Time;durP1;ratioP1;P1;durP2;ratioP2;P2;SDS_P1;SDS_P2;PMS_P1;PMS_P2;Temp;Humidity;BMP_temperature;BMP_pressure;BME280_temperature;BME280_humidity;BME280_pressure;Samples;Min_cycle;Max_cycle;Signal;HPM_P1;HPM_P2
2021/07/21 00:01:21;;;;;;;25.40;24.00;;;;;;;;;;5057550;28;20467;-72
2021/07/21 00:03:48;;;;;;;25.23;23.83;;;;;;;;;;5056468;28;20448;-72
2021/07/21 00:06:15;;;;;;;24.43;23.13;;;;;;;;;;5055039;28;20512;-71
2021/07/21 00:08:43;;;;;;;24.30;23.00;;;;;;;;;;5056146;28;20448;-72
2021/07/21 00:13:57;;;;;;;24.80;23.40;;;;;;;;;;5056232;28;20450;-72
2021/07/21 00:16:30;;;;;;;24.77;23.37;;;;;;;;;;5056466;28;20480;-72
2021/07/21 00:19:02;;;;;;;26.13;24.47;;;;;;;;;;5053639;28;20969;-73
2021/07/21 00:21:29;;;;;;;25.20;23.80;;;;;;;;;;5048241;28;20464;-73
2021/07/21 00:23:57;;;;;;;24.73;23.33;;;;;;;;;;5056159;28;20454;-72
2021/07/21 00:26:24;;;;;;;25.30;23.90;;;;;;;;;;5056500;28;20452;-73
2021/07/21 00:28:51;;;;;;;25.87;24.43;;;;;;;;;;5056360;28;20451;-74
2021/07/21 00:31:19;;;;;;;25.23;23.83;;;;;;;;;;5056807;28;20966;-72
2021/07/21 00:33:48;;;;;;;25.47;23.83;;;;;;;;;;5056494;28;20455;-73
2021/07/21 00:36:15;;;;;;;26.00;24.50;;;;;;;;;;5056856;28;20483;-72
2021/07/21 00:38:42;;;;;;;25.23;23.80;;;;;;;;;;5057696;28;20452;-73
2021/07/21 00:41:09;;;;;;;25.43;23.93;;;;;;;;;;5057104;28;20914;-72
2021/07/21 00:43:36;;;;;;;26.40;24.80;;;;;;;;;;5056966;28;20458;-73
2021/07/21 00:46:03;;;;;;;25.80;24.10;;;;;;;;;;5059990;28;20451;-74
2021/07/21 00:48:32;;;;;;;25.77;24.27;;;;;;;;;;5057930;28;20830;-74
2021/07/21 00:50:59;;;;;;;25.17;23.60;;;;;;;;;;5056643;28;20475;-74
2021/07/21 00:53:27;;;;;;;25.63;24.13;;;;;;;;;;5057134;28;20448;-74
2021/07/21 00:55:54;;;;;;;25.47;23.97;;;;;;;;;;5055946;28;20479;-73
2021/07/21 00:58:21;;;;;;;26.20;24.70;;;;;;;;;;5055231;28;20550;-74
2021/07/21 01:00:48;;;;;;;25.30;23.77;;;;;;;;;;5053797;28;20474;-74
2021/07/21 01:03:15;;;;;;;24.90;23.30;;;;;;;;;;5055435;28;20473;-73
2021/07/21 01:05:44;;;;;;;25.80;24.30;;;;;;;;;;5056470;28;20443;-72
2021/07/21 01:08:12;;;;;;;25.33;23.80;;;;;;;;;;5055191;28;20862;-72
2021/07/21 01:10:40;;;;;;;25.70;24.20;;;;;;;;;;5055360;28;20522;-72
2021/07/21 01:13:10;;;;;;;25.93;24.53;;;;;;;;;;5056439;28;20443;-74
2021/07/21 01:15:43;;;;;;;25.90;24.50;;;;;;;;;;5056902;28;20483;-73
2021/07/21 01:18:12;;;;;;;27.00;25.33;;;;;;;;;;5057137;28;20450;-73
2021/07/21 01:21:12;;;;;;;25.37;23.97;;;;;;;;;;5056362;28;20479;-72
2021/07/21 01:23:51;;;;;;;25.83;24.37;;;;;;;;;;5055941;28;20899;-72
2021/07/21 01:26:19;;;;;;;25.93;24.37;;;;;;;;;;5053727;28;20531;-74
2021/07/21 01:28:50;;;;;;;25.57;24.07;;;;;;;;;;5035142;28;20459;-74
2021/07/21 01:31:19;;;;;;;25.47;23.97;;;;;;;;;;5034611;28;20473;-73
2021/07/21 01:33:47;;;;;;;24.77;23.27;;;;;;;;;;5037362;28;20491;-74
2021/07/21 01:36:15;;;;;;;25.50;24.10;;;;;;;;;;5053725;28;20484;-74
2021/07/21 01:38:45;;;;;;;25.77;24.37;;;;;;;;;;5054514;28;20908;-74
2021/07/21 01:41:14;;;;;;;26.40;24.80;;;;;;;;;;5054681;28;20484;-74
2021/07/21 01:43:43;;;;;;;25.40;23.90;;;;;;;;;;5055013;28;20487;-74
2021/07/21 01:46:12;;;;;;;25.93;24.37;;;;;;;;;;5054362;28;20466;-74
2021/07/21 01:48:41;;;;;;;25.07;23.70;;;;;;;;;;5053828;28;20455;-73
2021/07/21 01:51:09;;;;;;;26.47;25.00;;;;;;;;;;5056534;28;20478;-72
2021/07/21 01:53:37;;;;;;;26.97;25.43;;;;;;;;;;5056272;28;20451;-72
2021/07/21 01:56:04;;;;;;;25.63;24.23;;;;;;;;;;5055685;28;20570;-73
2021/07/21 01:58:33;;;;;;;26.87;25.37;;;;;;;;;;5057173;28;20925;-73
2021/07/21 02:01:00;;;;;;;26.13;24.63;;;;;;;;;;5055924;28;20482;-73
2021/07/21 02:03:30;;;;;;;26.40;24.50;;;;;;;;;;5055058;28;20471;-72
2021/07/21 02:06:00;;;;;;;25.83;24.23;;;;;;;;;;5054040;28;20452;-74
2021/07/21 02:08:27;;;;;;;26.90;25.30;;;;;;;;;;5053668;28;20459;-74
2021/07/21 02:10:57;;;;;;;26.50;24.90;;;;;;;;;;5052977;28;20849;-73
2021/07/21 02:13:25;;;;;;;27.07;25.47;;;;;;;;;;5053344;28;20502;-74
2021/07/21 02:15:53;;;;;;;26.97;25.13;;;;;;;;;;5053671;28;20593;-74
2021/07/21 02:18:20;;;;;;;27.17;25.33;;;;;;;;;;5053467;28;20454;-74
2021/07/21 02:20:50;;;;;;;27.87;25.87;;;;;;;;;;5052723;28;21034;-74
2021/07/21 02:23:19;;;;;;;27.23;25.17;;;;;;;;;;5053896;28;20799;-74
2021/07/21 02:25:46;;;;;;;27.63;25.93;;;;;;;;;;5054915;28;20456;-73
2021/07/21 02:28:14;;;;;;;27.00;25.37;;;;;;;;;;5054281;28;20458;-73
2021/07/21 02:30:42;;;;;;;26.97;25.40;;;;;;;;;;5054861;28;20468;-73
2021/07/21 02:33:12;;;;;;;28.00;26.30;;;;;;;;;;5054053;28;20451;-73
2021/07/21 02:35:39;;;;;;;27.83;25.80;;;;;;;;;;5054962;28;20853;-73
2021/07/21 02:38:07;;;;;;;26.97;25.37;;;;;;;;;;5054029;28;20454;-73
2021/07/21 02:40:35;;;;;;;26.37;24.87;;;;;;;;;;5053852;28;20563;-73
2021/07/21 02:43:02;;;;;;;27.67;25.97;;;;;;;;;;5053398;28;20460;-73
2021/07/21 02:45:29;;;;;;;27.20;25.37;;;;;;;;;;5054464;28;20452;-73
2021/07/21 02:47:56;;;;;;;27.23;25.33;;;;;;;;;;5055547;28;20871;-74
2021/07/21 02:50:23;;;;;;;27.10;25.50;;;;;;;;;;5054304;28;20862;-72
2021/07/21 02:52:55;;;;;;;27.97;26.10;;;;;;;;;;5053075;28;20955;-72
2021/07/21 02:55:25;;;;;;;27.30;25.60;;;;;;;;;;5053354;28;20444;-72
2021/07/21 02:57:55;;;;;;;27.47;25.70;;;;;;;;;;5053910;28;20455;-72
2021/07/21 03:00:24;;;;;;;27.67;25.73;;;;;;;;;;5053710;28;20567;-72
2021/07/21 03:02:53;;;;;;;27.80;25.90;;;;;;;;;;5054187;28;20440;-73
2021/07/21 03:05:21;;;;;;;27.30;25.60;;;;;;;;;;5053867;28;20821;-72
2021/07/21 03:07:49;;;;;;;27.57;25.97;;;;;;;;;;5053031;28;20803;-72
2021/07/21 03:10:17;;;;;;;27.83;26.00;;;;;;;;;;5052295;28;20806;-72
2021/07/21 03:12:47;;;;;;;26.83;25.23;;;;;;;;;;5054102;28;20530;-73
2021/07/21 03:15:15;;;;;;;26.10;24.40;;;;;;;;;;5052809;28;20454;-72
2021/07/21 03:17:44;;;;;;;27.90;26.20;;;;;;;;;;5052973;28;20483;-72
2021/07/21 03:20:11;;;;;;;27.97;26.00;;;;;;;;;;5051951;28;20476;-73
2021/07/21 03:22:39;;;;;;;27.37;25.77;;;;;;;;;;5052722;28;20452;-73
2021/07/21 03:25:08;;;;;;;28.17;26.13;;;;;;;;;;5052504;28;20462;-72
2021/07/21 03:27:36;;;;;;;26.50;24.90;;;;;;;;;;5051874;28;20466;-73
2021/07/21 03:30:06;;;;;;;27.30;25.50;;;;;;;;;;5052386;28;21008;-72
2021/07/21 03:32:34;;;;;;;27.60;25.90;;;;;;;;;;5052926;28;20447;-74
2021/07/21 03:35:01;;;;;;;28.30;26.50;;;;;;;;;;5052617;28;20454;-72
2021/07/21 03:37:28;;;;;;;27.70;25.90;;;;;;;;;;5053741;28;21019;-72
2021/07/21 03:39:57;;;;;;;27.43;25.83;;;;;;;;;;5053443;28;20475;-72
2021/07/21 03:42:25;;;;;;;27.97;26.33;;;;;;;;;;5052455;28;20509;-73
2021/07/21 03:44:53;;;;;;;27.97;26.07;;;;;;;;;;5052745;28;20815;-71
2021/07/21 03:47:22;;;;;;;28.07;26.23;;;;;;;;;;5052254;28;20448;-73
2021/07/21 03:49:49;;;;;;;27.70;25.97;;;;;;;;;;5051708;28;20468;-73
2021/07/21 03:52:16;;;;;;;28.50;26.50;;;;;;;;;;5052180;28;20452;-73
2021/07/21 03:54:44;;;;;;;27.00;25.23;;;;;;;;;;5052649;28;20455;-74
2021/07/21 03:57:12;;;;;;;28.27;26.50;;;;;;;;;;5052287;28;20840;-74
2021/07/21 03:59:39;;;;;;;28.30;26.60;;;;;;;;;;5052760;28;20857;-74
2021/07/21 04:02:07;;;;;;;27.67;25.87;;;;;;;;;;5043788;28;20452;-74
2021/07/21 04:04:36;;;;;;;28.23;26.43;;;;;;;;;;5034961;28;20455;-74
2021/07/21 04:07:03;;;;;;;28.37;26.60;;;;;;;;;;5052197;28;20446;-73
2021/07/21 04:09:32;;;;;;;27.77;26.10;;;;;;;;;;5051986;28;20493;-74
2021/07/21 04:12:01;;;;;;;28.40;26.70;;;;;;;;;;5051724;28;20456;-74
2021/07/21 04:14:28;;;;;;;27.50;25.60;;;;;;;;;;5052371;28;20448;-73
2021/07/21 04:16:56;;;;;;;30.10;27.90;;;;;;;;;;5051594;28;20566;-74
2021/07/21 04:19:24;;;;;;;28.20;26.53;;;;;;;;;;5052003;28;20882;-74
2021/07/21 04:21:53;;;;;;;27.07;25.27;;;;;;;;;;5052090;28;20468;-73
2021/07/21 04:24:21;;;;;;;27.70;26.10;;;;;;;;;;5052228;28;20550;-74
2021/07/21 04:26:49;;;;;;;27.70;26.00;;;;;;;;;;5051650;28;20550;-73
2021/07/21 04:29:17;;;;;;;28.43;26.57;;;;;;;;;;5051442;28;20883;-74
2021/07/21 04:31:45;;;;;;;28.90;26.90;;;;;;;;;;5051581;28;20454;-74
2021/07/21 04:34:13;;;;;;;27.60;25.90;;;;;;;;;;5052205;28;20454;-73
2021/07/21 04:36:40;;;;;;;28.40;26.60;;;;;;;;;;5052527;28;20495;-74
2021/07/21 04:39:09;;;;;;;27.90;26.20;;;;;;;;;;5056013;28;20530;-73
2021/07/21 04:41:37;;;;;;;28.53;26.87;;;;;;;;;;5055822;28;20828;-73
2021/07/21 04:44:04;;;;;;;28.80;27.00;;;;;;;;;;5052603;28;20803;-74
2021/07/21 04:46:32;;;;;;;29.43;27.70;;;;;;;;;;5043899;28;20452;-74
2021/07/21 04:49:00;;;;;;;29.00;27.10;;;;;;;;;;5055456;28;20452;-74
2021/07/21 04:51:27;;;;;;;29.30;27.50;;;;;;;;;;5055626;28;20475;-74
2021/07/21 04:53:55;;;;;;;29.07;27.17;;;;;;;;;;5056168;28;20818;-74
2021/07/21 04:56:24;;;;;;;29.23;27.33;;;;;;;;;;5055388;28;21002;-73
2021/07/21 04:58:51;;;;;;;29.60;27.60;;;;;;;;;;5054820;28;20451;-73
2021/07/21 05:01:18;;;;;;;29.13;27.13;;;;;;;;;;5054554;28;20463;-74
2021/07/21 05:03:45;;;;;;;30.20;28.10;;;;;;;;;;5055314;28;20961;-73
2021/07/21 05:06:12;;;;;;;28.70;26.80;;;;;;;;;;5055222;28;20448;-73
2021/07/21 05:08:40;;;;;;;29.77;27.70;;;;;;;;;;5054773;28;21061;-74
2021/07/21 05:11:07;;;;;;;29.73;27.57;;;;;;;;;;5054209;28;20546;-74
2021/07/21 05:13:40;;;;;;;28.77;26.77;;;;;;;;;;5054751;28;20505;-74
2021/07/21 05:16:07;;;;;;;28.80;26.90;;;;;;;;;;5054278;28;20452;-73
2021/07/21 05:18:35;;;;;;;28.97;26.97;;;;;;;;;;5054506;28;20541;-72
2021/07/21 05:21:02;;;;;;;29.67;27.33;;;;;;;;;;5082484;22;20492;-65
2021/07/21 05:23:29;;;;;;;29.20;27.23;;;;;;;;;;5069354;28;20457;-62
2021/07/21 05:25:56;;;;;;;29.50;27.50;;;;;;;;;;5074268;28;20445;-63
2021/07/21 05:28:23;;;;;;;28.93;26.87;;;;;;;;;;5074547;28;20443;-63
2021/07/21 05:30:52;;;;;;;29.57;27.77;;;;;;;;;;5067147;28;20482;-63
2021/07/21 05:33:19;;;;;;;28.30;26.60;;;;;;;;;;5055588;28;20443;-62
2021/07/21 05:35:46;;;;;;;30.30;28.40;;;;;;;;;;5054462;28;20868;-62
2021/07/21 05:38:13;;;;;;;30.03;27.93;;;;;;;;;;5042847;28;20484;-63
2021/07/21 05:40:40;;;;;;;29.73;27.83;;;;;;;;;;5034736;28;20534;-63
2021/07/21 05:43:08;;;;;;;29.17;27.37;;;;;;;;;;5035639;28;20457;-62
2021/07/21 05:45:35;;;;;;;29.20;27.27;;;;;;;;;;5047963;28;20477;-65
2021/07/21 05:48:03;;;;;;;30.50;28.50;;;;;;;;;;5052997;28;20451;-62
2021/07/21 05:50:31;;;;;;;29.23;27.43;;;;;;;;;;5051283;28;20471;-63
2021/07/21 05:52:58;;;;;;;30.83;28.30;;;;;;;;;;5035916;28;20498;-63
2021/07/21 05:55:25;;;;;;;30.23;28.30;;;;;;;;;;5056295;28;20820;-62
2021/07/21 05:57:53;;;;;;;30.10;28.10;;;;;;;;;;5054730;28;20526;-64
2021/07/21 06:00:20;;;;;;;31.53;29.13;;;;;;;;;;5051774;28;20476;-62
2021/07/21 06:02:47;;;;;;;29.33;27.40;;;;;;;;;;5043425;28;20793;-64
2021/07/21 06:05:16;;;;;;;29.97;27.90;;;;;;;;;;5051611;28;20453;-63
2021/07/21 06:07:43;;;;;;;29.53;27.73;;;;;;;;;;5068772;28;20824;-65
2021/07/21 06:10:11;;;;;;;28.87;27.07;;;;;;;;;;5073889;28;20473;-63
2021/07/21 06:12:38;;;;;;;28.00;26.13;;;;;;;;;;5074030;28;20443;-63
2021/07/21 06:15:06;;;;;;;34.50;32.33;;;;;;;;;;5058163;28;20856;-65
2021/07/21 06:17:33;;;;;;;26.50;24.97;;;;;;;;;;5053494;28;20483;-63
2021/07/21 06:20:00;;;;;;;28.03;26.20;;;;;;;;;;5055632;28;20543;-67
2021/07/21 06:22:33;;;;;;;29.57;27.30;;;;;;;;;;5037447;28;20459;-65
2021/07/21 06:25:00;;;;;;;30.13;26.90;;;;;;;;;;5033733;28;20966;-62
2021/07/21 06:27:28;;;;;;;28.80;25.90;;;;;;;;;;5033416;28;20499;-64
2021/07/21 06:29:55;;;;;;;27.47;25.67;;;;;;;;;;5033892;28;20452;-62
2021/07/21 06:32:22;;;;;;;27.23;25.27;;;;;;;;;;5037198;28;20627;-62
2021/07/21 06:34:49;;;;;;;28.23;26.43;;;;;;;;;;5042021;28;20457;-62
2021/07/21 06:37:16;;;;;;;27.57;25.50;;;;;;;;;;5043548;28;20487;-62
2021/07/21 06:39:45;;;;;;;28.10;26.30;;;;;;;;;;5052367;28;21161;-61
2021/07/21 06:42:12;;;;;;;27.60;25.73;;;;;;;;;;5043100;28;20537;-62
2021/07/21 06:44:39;;;;;;;28.23;26.37;;;;;;;;;;5037597;28;20455;-62
2021/07/21 06:47:06;;;;;;;27.80;26.10;;;;;;;;;;5043772;28;20931;-62
2021/07/21 06:49:33;;;;;;;26.37;24.60;;;;;;;;;;5048256;28;20448;-61
2021/07/21 06:52:00;;;;;;;27.17;25.57;;;;;;;;;;5037285;28;21030;-62
2021/07/21 06:54:28;;;;;;;27.83;26.03;;;;;;;;;;5050268;28;20456;-62
2021/07/21 06:56:56;;;;;;;26.43;24.83;;;;;;;;;;5032371;28;20940;-62
2021/07/21 06:59:24;;;;;;;26.70;25.10;;;;;;;;;;5051398;28;20452;-62
2021/07/21 07:01:51;;;;;;;27.20;25.50;;;;;;;;;;5044669;28;20476;-62
2021/07/21 07:04:18;;;;;;;27.07;25.37;;;;;;;;;;5042146;28;20466;-65
2021/07/21 07:06:46;;;;;;;26.53;24.83;;;;;;;;;;5039962;28;20458;-62
2021/07/21 07:09:13;;;;;;;27.67;25.77;;;;;;;;;;5036311;28;20463;-63
2021/07/21 07:11:40;;;;;;;28.43;26.53;;;;;;;;;;5032033;28;20479;-61
2021/07/21 07:14:09;;;;;;;27.47;25.77;;;;;;;;;;5031522;28;20457;-62
2021/07/21 07:16:36;;;;;;;26.07;24.57;;;;;;;;;;5031707;28;20882;-61
2021/07/21 07:19:04;;;;;;;26.80;25.23;;;;;;;;;;5031528;28;20485;-62
2021/07/21 07:21:31;;;;;;;27.70;26.00;;;;;;;;;;5032482;28;20488;-65
2021/07/21 07:23:58;;;;;;;26.60;25.10;;;;;;;;;;5031809;28;20453;-62
2021/07/21 07:26:25;;;;;;;26.83;25.03;;;;;;;;;;5032621;28;20447;-65
2021/07/21 07:28:54;;;;;;;27.33;25.60;;;;;;;;;;5031752;28;21003;-62
2021/07/21 07:31:22;;;;;;;27.63;25.97;;;;;;;;;;5031769;28;20468;-61
2021/07/21 07:33:49;;;;;;;28.70;26.50;;;;;;;;;;5035161;28;20535;-62
2021/07/21 07:36:16;;;;;;;27.73;25.77;;;;;;;;;;5030687;28;20449;-65
2021/07/21 07:38:44;;;;;;;29.23;27.30;;;;;;;;;;5031436;28;20492;-65
2021/07/21 07:41:11;;;;;;;27.50;25.70;;;;;;;;;;5033827;28;20567;-66
2021/07/21 07:43:39;;;;;;;27.10;25.50;;;;;;;;;;5050136;28;20546;-66
2021/07/21 07:46:06;;;;;;;27.73;25.93;;;;;;;;;;5051596;28;20946;-64
2021/07/21 07:48:34;;;;;;;27.47;25.77;;;;;;;;;;5051568;28;20440;-64
2021/07/21 07:51:02;;;;;;;26.17;24.50;;;;;;;;;;5051290;28;20474;-63
2021/07/21 07:53:29;;;;;;;27.40;25.53;;;;;;;;;;5051120;28;20466;-64
2021/07/21 07:55:57;;;;;;;27.67;25.97;;;;;;;;;;5051829;28;20443;-63
2021/07/21 07:58:24;;;;;;;27.90;26.03;;;;;;;;;;5049839;28;20491;-64
2021/07/21 08:00:52;;;;;;;27.90;26.30;;;;;;;;;;5051200;28;20816;-62
2021/07/21 08:03:19;;;;;;;28.50;26.70;;;;;;;;;;5051167;28;20878;-63
2021/07/21 08:05:49;;;;;;;28.07;26.30;;;;;;;;;;5044844;28;20468;-63
2021/07/21 08:08:16;;;;;;;29.57;27.77;;;;;;;;;;5037478;28;20449;-63
2021/07/21 08:10:43;;;;;;;27.50;25.90;;;;;;;;;;5031493;28;20491;-63
2021/07/21 08:13:10;;;;;;;28.50;26.80;;;;;;;;;;5054387;28;20447;-64
2021/07/21 08:15:38;;;;;;;28.50;26.60;;;;;;;;;;5055365;28;20451;-64
2021/07/21 08:18:06;;;;;;;28.70;27.10;;;;;;;;;;5050548;28;20499;-63
2021/07/21 08:20:33;;;;;;;28.40;26.70;;;;;;;;;;5034634;28;20484;-64
2021/07/21 08:23:02;;;;;;;28.93;27.33;;;;;;;;;;5035707;28;20455;-64
2021/07/21 08:25:29;;;;;;;27.60;26.10;;;;;;;;;;5035024;28;20535;-63
2021/07/21 08:27:56;;;;;;;28.73;27.07;;;;;;;;;;5034754;28;20445;-64
2021/07/21 08:30:23;;;;;;;25.23;23.73;;;;;;;;;;5034048;28;20480;-63
2021/07/21 08:32:52;;;;;;;25.93;24.43;;;;;;;;;;5035076;28;20459;-62
2021/07/21 08:35:20;;;;;;;26.13;24.53;;;;;;;;;;5034882;28;20444;-63
2021/07/21 08:37:47;;;;;;;25.80;24.30;;;;;;;;;;5034707;28;20485;-63
2021/07/21 08:40:16;;;;;;;25.47;23.97;;;;;;;;;;5034711;28;20471;-64
2021/07/21 08:42:43;;;;;;;25.60;24.20;;;;;;;;;;5034852;28;20456;-66
2021/07/21 08:45:11;;;;;;;26.23;24.43;;;;;;;;;;5034762;28;20450;-64
2021/07/21 08:47:39;;;;;;;26.20;24.40;;;;;;;;;;5034625;28;20451;-64
2021/07/21 08:50:07;;;;;;;24.87;23.33;;;;;;;;;;5033683;28;20575;-63
2021/07/21 08:52:34;;;;;;;25.63;24.03;;;;;;;;;;5034204;28;20460;-63
2021/07/21 08:55:03;;;;;;;25.27;23.70;;;;;;;;;;5034540;28;20456;-63
2021/07/21 08:57:33;;;;;;;26.43;24.67;;;;;;;;;;5034517;28;20448;-63
2021/07/21 09:00:00;;;;;;;26.60;24.97;;;;;;;;;;5034035;28;20551;-63
2021/07/21 09:02:28;;;;;;;26.97;25.17;;;;;;;;;;5034319;28;20460;-63
2021/07/21 09:04:55;;;;;;;26.03;24.23;;;;;;;;;;5034447;28;20461;-65
2021/07/21 09:07:22;;;;;;;27.50;25.47;;;;;;;;;;5033929;28;20939;-66
2021/07/21 09:09:50;;;;;;;26.90;25.20;;;;;;;;;;5034660;28;20485;-65
2021/07/21 09:12:17;;;;;;;27.20;25.43;;;;;;;;;;5044910;28;20944;-66
2021/07/21 09:14:45;;;;;;;31.90;29.90;;;;;;;;;;5034312;28;20511;-66
2021/07/21 09:17:14;;;;;;;29.37;27.47;;;;;;;;;;5042077;28;20453;-66
2021/07/21 09:19:42;;;;;;;30.90;29.20;;;;;;;;;;5034394;28;20484;-66
2021/07/21 09:22:13;;;;;;;32.00;29.90;;;;;;;;;;5034679;28;20456;-66
2021/07/21 09:24:40;;;;;;;31.60;29.80;;;;;;;;;;5052369;28;20455;-66
2021/07/21 09:27:07;;;;;;;32.23;30.33;;;;;;;;;;5036232;28;20947;-65
2021/07/21 09:29:34;;;;;;;31.27;29.37;;;;;;;;;;5034131;28;20455;-64
2021/07/21 09:32:03;;;;;;;31.10;29.00;;;;;;;;;;5033769;28;20520;-64
2021/07/21 09:34:34;;;;;;;30.87;29.17;;;;;;;;;;5034243;28;20453;-64
2021/07/21 09:37:01;;;;;;;31.90;30.10;;;;;;;;;;5033579;28;20522;-64
2021/07/21 09:39:31;;;;;;;31.13;29.37;;;;;;;;;;5033492;28;20850;-66
2021/07/21 09:41:59;;;;;;;32.43;30.43;;;;;;;;;;5043947;28;20482;-64
2021/07/21 09:44:32;;;;;;;29.43;27.83;;;;;;;;;;5054002;28;20545;-64
2021/07/21 09:47:10;;;;;;;27.33;25.77;;;;;;;;;;5053636;28;20469;-62
2021/07/21 09:49:37;;;;;;;28.50;26.83;;;;;;;;;;5053435;28;20455;-63
2021/07/21 09:52:21;;;;;;;30.13;28.17;;;;;;;;;;5052719;28;20468;-63
2021/07/21 09:55:07;;;;;;;28.70;27.10;;;;;;;;;;5051302;28;20954;-64
2021/07/21 09:57:35;;;;;;;28.77;27.07;;;;;;;;;;5053290;28;20458;-64
2021/07/21 10:00:17;;;;;;;28.93;27.23;;;;;;;;;;5053105;28;20490;-65
2021/07/21 10:02:45;;;;;;;29.70;27.83;;;;;;;;;;5053269;28;20440;-63
2021/07/21 10:05:13;;;;;;;26.40;24.90;;;;;;;;;;5053055;28;20840;-63
2021/07/21 10:07:52;;;;;;;27.30;25.60;;;;;;;;;;5053073;28;20453;-63
2021/07/21 10:10:20;;;;;;;26.50;25.10;;;;;;;;;;5052907;28;20992;-64
2021/07/21 10:12:58;;;;;;;27.27;25.67;;;;;;;;;;5045282;28;20964;-63
2021/07/21 10:15:26;;;;;;;26.00;24.60;;;;;;;;;;5037439;28;20440;-63
2021/07/21 10:18:07;;;;;;;25.87;24.37;;;;;;;;;;5050953;28;20834;-63
2021/07/21 10:20:34;;;;;;;26.37;24.77;;;;;;;;;;5052513;28;20486;-63
2021/07/21 10:23:02;;;;;;;25.53;24.13;;;;;;;;;;5052901;28;20447;-63
2021/07/21 10:25:30;;;;;;;26.40;24.90;;;;;;;;;;5052657;28;20448;-63
2021/07/21 10:27:58;;;;;;;26.70;25.10;;;;;;;;;;5052873;28;20891;-64
2021/07/21 10:30:25;;;;;;;25.43;24.03;;;;;;;;;;5052589;28;20857;-64
2021/07/21 10:32:53;;;;;;;28.30;26.60;;;;;;;;;;5048206;28;20823;-63
2021/07/21 10:35:21;;;;;;;30.83;29.00;;;;;;;;;;5033492;28;20535;-63
2021/07/21 10:37:49;;;;;;;29.43;27.73;;;;;;;;;;5032667;28;20456;-63
2021/07/21 10:40:18;;;;;;;27.80;26.20;;;;;;;;;;5032299;28;20979;-65
2021/07/21 10:42:46;;;;;;;28.63;26.87;;;;;;;;;;5032821;28;20451;-65
2021/07/21 10:45:14;;;;;;;27.90;26.30;;;;;;;;;;5032687;28;20445;-65
2021/07/21 10:47:45;;;;;;;29.57;27.93;;;;;;;;;;5041290;28;20468;-65
2021/07/21 10:50:28;;;;;;;27.90;26.20;;;;;;;;;;5035711;28;20465;-63
2021/07/21 10:53:10;;;;;;;26.80;25.20;;;;;;;;;;5032445;28;20456;-63
2021/07/21 10:55:42;;;;;;;28.23;26.37;;;;;;;;;;5031922;28;20502;-64
2021/07/21 11:00:55;;;;;;;28.00;26.30;;;;;;;;;;5031887;28;20447;-62
2021/07/21 11:03:23;;;;;;;27.13;25.53;;;;;;;;;;5032273;28;20452;-62
2021/07/21 11:06:02;;;;;;;28.13;26.43;;;;;;;;;;5031860;28;20453;-63
2021/07/21 11:08:30;;;;;;;28.20;26.60;;;;;;;;;;5047181;28;20448;-62
2021/07/21 11:10:58;;;;;;;29.27;27.57;;;;;;;;;;5051648;28;20464;-63
2021/07/21 11:13:38;;;;;;;29.23;27.53;;;;;;;;;;5052199;28;20828;-63
2021/07/21 11:16:07;;;;;;;28.17;26.47;;;;;;;;;;5052175;28;20522;-63
2021/07/21 11:18:40;;;;;;;29.27;27.53;;;;;;;;;;5051835;28;20483;-64
2021/07/21 11:21:09;;;;;;;28.10;26.50;;;;;;;;;;5079095;22;21013;-70
2021/07/21 11:23:43;;;;;;;27.33;25.83;;;;;;;;;;5069869;28;20466;-71
2021/07/21 11:26:30;;;;;;;30.00;28.20;;;;;;;;;;5065047;28;20828;-70
2021/07/21 11:28:57;;;;;;;27.20;25.60;;;;;;;;;;5072301;28;20534;-70
2021/07/21 11:31:39;;;;;;;28.17;26.57;;;;;;;;;;5072252;28;20466;-70
2021/07/21 11:34:11;;;;;;;26.90;25.30;;;;;;;;;;5072073;28;20825;-70
2021/07/21 11:36:56;;;;;;;27.33;25.73;;;;;;;;;;5072764;28;20497;-70
2021/07/21 11:39:35;;;;;;;27.43;25.83;;;;;;;;;;5071920;28;20633;-70
2021/07/21 11:42:02;;;;;;;28.67;26.97;;;;;;;;;;5071935;28;20474;-70
2021/07/21 11:44:31;;;;;;;26.70;25.30;;;;;;;;;;5071588;28;20964;-70
2021/07/21 11:46:59;;;;;;;27.73;26.23;;;;;;;;;;5071285;28;20450;-70
2021/07/21 11:49:27;;;;;;;27.23;25.57;;;;;;;;;;5071904;28;20442;-70
2021/07/21 11:51:57;;;;;;;27.20;25.70;;;;;;;;;;5071829;28;20961;-70
2021/07/21 11:54:27;;;;;;;27.93;26.33;;;;;;;;;;5070949;28;20530;-70
2021/07/21 11:56:54;;;;;;;27.97;26.40;;;;;;;;;;5072011;28;20549;-70
2021/07/21 11:59:28;;;;;;;28.80;27.10;;;;;;;;;;5071503;28;20482;-70
2021/07/21 12:02:02;;;;;;;27.93;26.40;;;;;;;;;;5071343;28;20835;-70
2021/07/21 12:04:29;;;;;;;28.13;26.63;;;;;;;;;;5071209;28;20451;-71
2021/07/21 12:06:58;;;;;;;26.77;25.37;;;;;;;;;;5071637;28;20451;-70
2021/07/21 12:09:28;;;;;;;27.93;26.40;;;;;;;;;;5072037;28;20482;-70
2021/07/21 12:11:57;;;;;;;27.20;25.70;;;;;;;;;;5071994;28;20470;-70
2021/07/21 12:14:24;;;;;;;24.90;23.53;;;;;;;;;;5071847;28;20451;-70
2021/07/21 12:16:52;;;;;;;24.40;23.10;;;;;;;;;;5071363;28;20447;-71
2021/07/21 12:19:24;;;;;;;25.80;24.30;;;;;;;;;;5071801;28;20475;-70
2021/07/21 12:22:01;;;;;;;26.40;24.90;;;;;;;;;;5070668;28;20482;-71
2021/07/21 12:24:33;;;;;;;26.87;25.47;;;;;;;;;;5068229;28;20436;-71
2021/07/21 12:27:00;;;;;;;25.63;24.20;;;;;;;;;;5071814;28;20910;-70
2021/07/21 12:29:27;;;;;;;25.70;24.30;;;;;;;;;;5071745;28;20439;-70
2021/07/21 12:32:02;;;;;;;24.60;23.30;;;;;;;;;;5071631;28;20469;-70
2021/07/21 12:34:29;;;;;;;26.37;24.80;;;;;;;;;;5052870;28;20453;-69
2021/07/21 12:36:57;;;;;;;27.13;25.63;;;;;;;;;;5051991;28;20455;-70
2021/07/21 12:39:28;;;;;;;24.50;23.13;;;;;;;;;;5055735;28;20485;-70
2021/07/21 12:41:56;;;;;;;24.47;22.97;;;;;;;;;;5071147;28;20477;-70
2021/07/21 12:44:27;;;;;;;24.40;23.10;;;;;;;;;;5071887;28;20443;-70
2021/07/21 12:47:10;;;;;;;24.80;23.50;;;;;;;;;;5071970;28;20431;-70
2021/07/21 12:49:39;;;;;;;25.10;23.70;;;;;;;;;;5071756;28;20496;-70
2021/07/21 12:52:07;;;;;;;23.53;22.23;;;;;;;;;;5071157;28;20467;-72
2021/07/21 12:54:35;;;;;;;24.10;22.80;;;;;;;;;;5063794;28;20454;-70
2021/07/21 12:57:03;;;;;;;24.43;22.93;;;;;;;;;;5051098;28;20450;-70
2021/07/21 12:59:37;;;;;;;24.50;23.00;;;;;;;;;;5053997;28;21002;-70
2021/07/21 13:02:08;;;;;;;24.03;22.80;;;;;;;;;;5054529;28;20472;-70
2021/07/21 13:04:35;;;;;;;24.60;23.20;;;;;;;;;;5055404;28;20462;-70
2021/07/21 13:07:03;;;;;;;23.33;22.13;;;;;;;;;;5054631;28;20450;-70
2021/07/21 13:09:30;;;;;;;24.27;22.97;;;;;;;;;;5062783;28;20443;-70
2021/07/21 13:11:59;;;;;;;22.63;21.43;;;;;;;;;;5073982;28;20998;-70
2021/07/21 13:14:26;;;;;;;23.07;21.80;;;;;;;;;;5069959;28;20950;-70
2021/07/21 13:16:53;;;;;;;23.43;22.03;;;;;;;;;;5057102;28;20495;-70
2021/07/21 13:19:30;;;;;;;22.73;21.53;;;;;;;;;;5057499;28;20494;-70
2021/07/21 13:21:57;;;;;;;23.90;22.50;;;;;;;;;;5054182;28;20487;-72
2021/07/21 13:24:26;;;;;;;24.50;22.90;;;;;;;;;;5059778;28;20444;-72
2021/07/21 13:26:54;;;;;;;23.57;22.17;;;;;;;;;;5053087;28;20543;-72
2021/07/21 13:29:23;;;;;;;23.93;22.40;;;;;;;;;;5034494;28;20551;-72
2021/07/21 13:31:51;;;;;;;22.97;21.70;;;;;;;;;;5045081;28;21004;-72
2021/07/21 13:34:19;;;;;;;22.67;21.47;;;;;;;;;;5054145;28;20807;-72
2021/07/21 13:36:47;;;;;;;22.93;21.73;;;;;;;;;;5053942;28;20858;-70
2021/07/21 13:39:14;;;;;;;23.90;22.40;;;;;;;;;;5062807;28;20486;-71
2021/07/21 13:41:43;;;;;;;23.43;21.93;;;;;;;;;;5073630;28;20462;-72
2021/07/21 13:44:10;;;;;;;23.83;22.53;;;;;;;;;;5061239;28;20448;-71
2021/07/21 13:46:47;;;;;;;23.20;21.73;;;;;;;;;;5053928;28;20451;-72
2021/07/21 13:49:14;;;;;;;24.20;22.80;;;;;;;;;;5053784;28;20434;-72
2021/07/21 13:51:42;;;;;;;25.90;24.50;;;;;;;;;;5053226;28;20467;-71
2021/07/21 13:54:10;;;;;;;25.97;24.17;;;;;;;;;;5063326;28;20453;-71
2021/07/21 13:56:37;;;;;;;26.03;24.53;;;;;;;;;;5073578;28;20450;-70
2021/07/21 13:59:04;;;;;;;24.47;23.17;;;;;;;;;;5073596;28;20457;-72
2021/07/21 14:01:32;;;;;;;24.53;23.13;;;;;;;;;;5073246;28;20477;-72
2021/07/21 14:04:00;;;;;;;23.30;22.10;;;;;;;;;;5073314;28;20465;-71
2021/07/21 14:06:28;;;;;;;25.27;23.87;;;;;;;;;;5073152;28;20936;-71
2021/07/21 14:08:55;;;;;;;26.43;25.13;;;;;;;;;;5065649;28;20456;-71
2021/07/21 14:11:22;;;;;;;24.07;22.77;;;;;;;;;;5052585;28;20563;-72
2021/07/21 14:13:49;;;;;;;23.70;22.40;;;;;;;;;;5052932;28;20452;-71
2021/07/21 14:16:16;;;;;;;23.57;22.27;;;;;;;;;;5053017;28;20463;-72
2021/07/21 14:18:44;;;;;;;22.40;21.20;;;;;;;;;;5052647;28;20957;-71
2021/07/21 14:21:12;;;;;;;22.80;21.60;;;;;;;;;;5052798;28;20490;-72
2021/07/21 14:23:39;;;;;;;21.37;20.27;;;;;;;;;;5053088;28;20935;-71
2021/07/21 14:26:07;;;;;;;22.57;21.37;;;;;;;;;;5053404;28;20448;-71
2021/07/21 14:28:34;;;;;;;22.57;21.17;;;;;;;;;;5053961;28;20456;-71
2021/07/21 14:31:01;;;;;;;23.13;21.80;;;;;;;;;;5062041;28;20470;-71